createdAt,value
2018-06-30T00:02:22.865Z,4.70
2018-06-30T00:04:50.462Z,4.67
2018-06-30T00:07:18.034Z,4.53
2018-06-30T00:09:46.361Z,5.03
2018-06-30T00:12:13.960Z,5.10
2018-06-30T00:14:41.524Z,4.93
2018-06-30T00:17:09.083Z,4.87
2018-06-30T00:19:36.709Z,5.00
2018-06-30T00:22:04.268Z,4.50
2018-06-30T00:24:31.831Z,4.60
2018-06-30T00:26:59.418Z,5.40
2018-06-30T00:29:26.982Z,4.53
2018-06-30T00:31:54.544Z,5.07
2018-06-30T00:34:22.133Z,4.47
2018-06-30T00:36:50.461Z,4.23
2018-06-30T00:39:18.027Z,5.10
2018-06-30T00:41:46.292Z,4.83
2018-06-30T00:44:13.852Z,4.93
2018-06-30T00:46:41.411Z,4.97
2018-06-30T00:49:09.016Z,4.70
2018-06-30T00:51:36.570Z,5.50
2018-06-30T00:54:04.138Z,5.60
2018-06-30T00:56:31.735Z,5.13
2018-06-30T00:58:59.293Z,5.50
2018-06-30T01:01:26.855Z,5.27
2018-06-30T01:03:54.473Z,5.30
2018-06-30T01:06:22.033Z,5.27
2018-06-30T01:08:49.593Z,4.73
2018-06-30T01:11:17.188Z,5.87
2018-06-30T01:13:44.746Z,5.90
2018-06-30T01:16:13.068Z,5.00
2018-06-30T01:18:40.668Z,5.20
2018-06-30T01:21:08.226Z,6.10
2018-06-30T01:23:35.784Z,6.53
2018-06-30T01:26:04.441Z,5.97
2018-06-30T01:28:31.997Z,5.80
2018-06-30T01:30:59.874Z,5.57
2018-06-30T01:33:27.465Z,5.80
2018-06-30T01:35:55.025Z,6.10
2018-06-30T01:38:22.594Z,5.27
2018-06-30T01:40:50.185Z,5.43
2018-06-30T01:43:17.747Z,5.20
2018-06-30T01:45:45.299Z,5.47
2018-06-30T01:48:13.246Z,5.57
2018-06-30T01:50:40.802Z,6.33
2018-06-30T01:53:08.361Z,5.67
2018-06-30T01:55:35.959Z,5.30
2018-06-30T01:58:03.525Z,4.77
2018-06-30T02:00:31.093Z,5.33
2018-06-30T02:02:58.694Z,4.63
2018-06-30T02:05:26.261Z,4.70
2018-06-30T02:07:53.826Z,5.30
2018-06-30T02:10:21.437Z,4.50
2018-06-30T02:12:49.004Z,4.80
2018-06-30T02:15:16.570Z,4.40
2018-06-30T02:17:44.167Z,4.20
2018-06-30T02:20:11.727Z,5.00
2018-06-30T02:22:39.288Z,4.73
2018-06-30T02:25:06.895Z,5.35
2018-06-30T02:27:34.513Z,5.40
2018-06-30T02:30:02.071Z,5.37
2018-06-30T02:32:29.695Z,5.23
2018-06-30T02:34:57.255Z,4.97
2018-06-30T02:37:24.815Z,5.67
2018-06-30T02:39:52.411Z,5.17
2018-06-30T02:42:19.980Z,5.57
2018-06-30T02:44:47.556Z,5.60
2018-06-30T02:47:15.170Z,5.62
2018-06-30T02:49:42.733Z,4.80
2018-06-30T02:52:10.295Z,5.20
2018-06-30T02:54:37.892Z,4.60
2018-06-30T02:57:05.451Z,5.20
2018-06-30T02:59:33.011Z,4.80
2018-06-30T03:02:00.606Z,5.90
2018-06-30T03:04:28.165Z,5.07
2018-06-30T03:06:56.492Z,6.03
2018-06-30T03:09:24.098Z,5.87
2018-06-30T03:11:51.653Z,5.70
2018-06-30T03:14:19.226Z,5.40
2018-06-30T03:16:47.591Z,5.53
2018-06-30T03:19:15.159Z,5.30
2018-06-30T03:21:43.476Z,5.57
2018-06-30T03:24:11.072Z,6.30
2018-06-30T03:26:38.641Z,6.03
2018-06-30T03:29:06.211Z,6.20
2018-06-30T03:31:33.859Z,6.97
2018-06-30T03:34:01.373Z,5.97
2018-06-30T03:36:28.935Z,5.97
2018-06-30T03:38:57.448Z,5.63
2018-06-30T03:41:25.015Z,5.77
2018-06-30T03:43:52.602Z,5.43
2018-06-30T03:46:21.004Z,5.67
2018-06-30T03:48:48.524Z,6.10
2018-06-30T03:51:16.077Z,5.77
2018-06-30T03:53:43.711Z,5.27
2018-06-30T03:56:11.998Z,6.15
2018-06-30T03:58:39.567Z,5.30
2018-06-30T04:01:07.185Z,5.50
2018-06-30T04:03:35.506Z,5.93
2018-06-30T04:06:03.071Z,6.30
2018-06-30T04:08:30.674Z,6.00
2018-06-30T04:10:59.000Z,5.73
2018-06-30T04:13:26.556Z,6.40
2018-06-30T04:15:54.154Z,6.17
2018-06-30T04:18:21.720Z,6.40
2018-06-30T04:20:49.285Z,7.25
2018-06-30T04:23:16.908Z,6.30
2018-06-30T04:25:44.478Z,6.57
2018-06-30T04:28:12.034Z,6.73
2018-06-30T04:30:39.641Z,6.07
2018-06-30T04:33:07.197Z,6.83
2018-06-30T04:35:34.757Z,6.20
2018-06-30T04:38:02.357Z,6.20
2018-06-30T04:40:29.915Z,6.53
2018-06-30T04:42:57.473Z,6.20
2018-06-30T04:45:25.588Z,6.17
2018-06-30T04:47:53.152Z,6.23
2018-06-30T04:50:20.715Z,6.00
2018-06-30T04:52:48.304Z,6.43
2018-06-30T04:55:16.630Z,6.40
2018-06-30T04:57:44.255Z,6.27
2018-06-30T05:00:11.793Z,6.03
2018-06-30T05:02:39.349Z,6.00
2018-06-30T05:05:06.911Z,7.25
2018-06-30T05:07:35.385Z,5.90
2018-06-30T05:10:02.949Z,6.23
2018-06-30T05:12:30.514Z,5.17
2018-06-30T05:14:58.139Z,5.63
2018-06-30T05:17:26.447Z,5.10
2018-06-30T05:19:54.014Z,5.10
2018-06-30T05:22:21.610Z,5.23
2018-06-30T05:24:49.937Z,4.93
2018-06-30T05:27:17.496Z,4.93
2018-06-30T05:29:45.468Z,4.80
2018-06-30T05:32:12.992Z,4.70
2018-06-30T05:34:40.550Z,4.40
2018-06-30T05:37:08.161Z,4.80
2018-06-30T05:39:35.716Z,5.50
2018-06-30T05:42:03.281Z,4.70
2018-06-30T05:44:30.875Z,5.20
2018-06-30T05:46:59.226Z,5.13
2018-06-30T05:49:26.795Z,4.93
2018-06-30T05:51:54.410Z,4.40
2018-06-30T05:54:21.966Z,4.33
2018-06-30T05:56:49.530Z,4.10
2018-06-30T05:59:17.165Z,4.13
2018-06-30T06:01:44.688Z,3.63
2018-06-30T06:04:12.245Z,3.40
2018-06-30T06:06:39.841Z,3.53
2018-06-30T06:09:07.404Z,3.20
2018-06-30T06:11:34.971Z,3.80
2018-06-30T06:14:03.724Z,3.80
2018-06-30T06:16:31.282Z,3.20
2018-06-30T06:18:58.846Z,3.07
2018-06-30T06:21:26.437Z,3.13
2018-06-30T06:23:54.002Z,3.03
2018-06-30T06:26:22.325Z,2.97
2018-06-30T06:28:49.919Z,3.37
2018-06-30T06:31:17.482Z,3.07
2018-06-30T06:33:45.051Z,3.40
2018-06-30T06:36:12.656Z,3.07
2018-06-30T06:38:40.209Z,3.17
2018-06-30T06:41:07.777Z,3.13
2018-06-30T06:43:35.382Z,2.93
2018-06-30T06:46:02.941Z,3.10
2018-06-30T06:48:30.795Z,2.93
2018-06-30T06:50:58.407Z,2.77
2018-06-30T06:53:25.956Z,2.67
2018-06-30T06:55:53.514Z,2.97
2018-06-30T06:58:21.148Z,3.10
2018-06-30T07:00:48.711Z,3.10
2018-06-30T07:03:16.274Z,2.87
2018-06-30T07:05:43.868Z,3.17
2018-06-30T07:08:12.225Z,2.97
2018-06-30T07:10:39.756Z,3.00
2018-06-30T07:13:07.345Z,3.20
2018-06-30T07:15:34.902Z,3.57
2018-06-30T07:18:02.466Z,3.07
2018-06-30T07:20:30.084Z,3.10
2018-06-30T07:22:57.642Z,3.37
2018-06-30T07:25:25.210Z,2.83
2018-06-30T07:27:52.799Z,2.93
2018-06-30T07:30:20.360Z,2.93
2018-06-30T07:32:47.926Z,3.37
2018-06-30T07:35:15.517Z,2.80
2018-06-30T07:37:43.077Z,3.00
2018-06-30T07:40:10.634Z,2.70
2018-06-30T07:42:38.238Z,3.03
2018-06-30T07:45:05.799Z,2.63
2018-06-30T07:47:33.359Z,2.80
2018-06-30T07:50:00.953Z,2.50
2018-06-30T07:52:28.681Z,2.90
2018-06-30T07:54:56.134Z,2.70
2018-06-30T07:57:23.726Z,3.00
2018-06-30T07:59:51.297Z,3.13
2018-06-30T08:02:18.858Z,2.70
2018-06-30T08:04:46.515Z,2.90
2018-06-30T08:07:14.088Z,3.00
2018-06-30T08:09:42.368Z,3.23
2018-06-30T08:12:09.963Z,2.70
2018-06-30T08:14:38.601Z,3.00
2018-06-30T08:17:06.167Z,2.77
2018-06-30T08:19:33.761Z,2.43
2018-06-30T08:22:01.324Z,3.00
2018-06-30T08:24:28.889Z,3.17
2018-06-30T08:26:57.265Z,2.83
2018-06-30T08:29:24.862Z,3.00
2018-06-30T08:31:52.396Z,2.90
2018-06-30T08:34:20.751Z,3.08
2018-06-30T08:36:48.316Z,2.90
2018-06-30T08:39:15.873Z,2.90
2018-06-30T08:41:43.465Z,3.00
2018-06-30T08:44:11.027Z,3.03
2018-06-30T08:46:39.355Z,2.97
2018-06-30T08:49:06.958Z,2.87
2018-06-30T08:51:35.294Z,2.90
2018-06-30T08:54:02.858Z,3.00
2018-06-30T08:56:30.460Z,2.97
2018-06-30T08:58:58.786Z,2.90
2018-06-30T09:01:26.343Z,2.97
2018-06-30T09:03:53.944Z,3.10
2018-06-30T09:06:21.578Z,2.70
2018-06-30T09:08:49.073Z,3.00
2018-06-30T09:11:17.114Z,3.03
2018-06-30T09:13:44.675Z,2.70
2018-06-30T09:16:12.264Z,3.30
2018-06-30T09:18:39.831Z,2.90
2018-06-30T09:21:07.399Z,3.00
2018-06-30T09:23:34.964Z,3.00
2018-06-30T09:26:03.327Z,2.97
2018-06-30T09:28:30.889Z,2.60
2018-06-30T09:30:58.460Z,3.10
2018-06-30T09:33:26.063Z,2.83
2018-06-30T09:35:53.622Z,2.87
2018-06-30T09:38:21.174Z,2.43
2018-06-30T09:40:48.753Z,2.93
2018-06-30T09:43:16.309Z,3.30
2018-06-30T09:45:43.872Z,2.90
2018-06-30T09:48:11.456Z,3.03
2018-06-30T09:50:39.028Z,3.17
2018-06-30T09:53:06.580Z,2.80
2018-06-30T09:55:34.192Z,2.57
2018-06-30T09:58:01.746Z,2.60
2018-06-30T10:00:30.139Z,2.77
2018-06-30T10:02:57.668Z,2.43
2018-06-30T10:05:25.227Z,3.13
2018-06-30T10:07:52.790Z,2.60
2018-06-30T10:10:20.379Z,2.27
2018-06-30T10:12:47.939Z,3.17
2018-06-30T10:15:15.492Z,2.53
2018-06-30T10:17:44.230Z,2.80
2018-06-30T10:20:11.797Z,2.47
2018-06-30T10:22:39.349Z,2.73
2018-06-30T10:25:06.939Z,2.60
2018-06-30T10:27:34.501Z,2.87
2018-06-30T10:30:02.056Z,2.50
2018-06-30T10:32:29.643Z,2.20
2018-06-30T10:34:57.965Z,2.27
2018-06-30T10:37:25.515Z,2.73
2018-06-30T10:39:53.126Z,2.43
2018-06-30T10:42:20.706Z,2.30
2018-06-30T10:44:48.239Z,2.50
2018-06-30T10:47:15.845Z,2.50
2018-06-30T10:49:46.368Z,2.30
2018-06-30T10:52:13.916Z,2.43
2018-06-30T10:54:42.269Z,2.40
2018-06-30T10:57:09.829Z,2.60
2018-06-30T10:59:37.387Z,2.50
2018-06-30T11:02:04.971Z,2.30
2018-06-30T11:04:32.527Z,2.20
2018-06-30T11:07:00.079Z,3.10
2018-06-30T11:09:27.675Z,2.33
2018-06-30T11:11:55.237Z,2.40
2018-06-30T11:14:23.549Z,2.43
2018-06-30T11:16:51.137Z,2.40
2018-06-30T11:19:18.690Z,2.60
2018-06-30T11:21:46.244Z,2.83
2018-06-30T11:24:13.825Z,2.10
2018-06-30T11:26:41.388Z,2.67
2018-06-30T11:29:08.942Z,2.92
2018-06-30T11:31:36.554Z,2.70
2018-06-30T11:34:04.247Z,3.08
2018-06-30T11:36:31.719Z,3.80
2018-06-30T11:38:59.317Z,2.80
2018-06-30T11:41:26.866Z,2.50
2018-06-30T11:43:55.187Z,2.83
2018-06-30T11:46:22.776Z,3.07
2018-06-30T11:48:50.328Z,2.93
2018-06-30T11:51:17.885Z,3.10
2018-06-30T11:53:45.954Z,3.00
2018-06-30T11:56:13.509Z,2.63
2018-06-30T11:58:41.061Z,2.67
2018-06-30T12:01:08.651Z,2.80
2018-06-30T12:03:36.269Z,2.80
2018-06-30T12:06:03.770Z,2.90
2018-06-30T12:08:31.352Z,3.03
2018-06-30T12:10:58.912Z,2.73
2018-06-30T12:13:26.472Z,3.07
2018-06-30T12:15:54.075Z,3.13
2018-06-30T12:18:21.627Z,3.13
2018-06-30T12:20:49.178Z,2.70
2018-06-30T12:23:16.767Z,2.70
2018-06-30T12:25:44.316Z,2.73
2018-06-30T12:28:11.867Z,3.10
2018-06-30T12:30:40.223Z,2.53
2018-06-30T12:33:07.777Z,3.10
2018-06-30T12:35:35.331Z,2.90
2018-06-30T12:38:03.439Z,3.10
2018-06-30T12:40:30.997Z,2.87
2018-06-30T12:42:59.320Z,2.90
2018-06-30T12:45:26.904Z,3.30
2018-06-30T12:47:54.453Z,2.70
2018-06-30T12:50:22.008Z,2.77
2018-06-30T12:52:49.590Z,2.63
2018-06-30T12:55:17.146Z,2.70
2018-06-30T12:57:44.709Z,2.90
2018-06-30T13:00:12.303Z,3.12
2018-06-30T13:02:40.620Z,3.00
2018-06-30T13:05:08.206Z,3.10
2018-06-30T13:07:35.798Z,2.97
2018-06-30T13:10:03.352Z,3.47
2018-06-30T13:12:30.901Z,3.23
2018-06-30T13:14:58.492Z,3.13
2018-06-30T13:17:26.816Z,2.90
2018-06-30T13:19:54.364Z,2.97
2018-06-30T13:22:22.868Z,2.70
2018-06-30T13:24:50.441Z,2.90
2018-06-30T13:27:17.994Z,2.90
2018-06-30T13:29:45.583Z,2.60
2018-06-30T13:32:13.144Z,2.70
2018-06-30T13:34:40.698Z,2.87
2018-06-30T13:37:08.281Z,2.83
2018-06-30T13:39:36.596Z,2.83
2018-06-30T13:42:04.147Z,2.80
2018-06-30T13:44:31.740Z,2.70
2018-06-30T13:46:59.294Z,3.00
2018-06-30T13:49:26.857Z,2.90
2018-06-30T13:51:54.468Z,2.70
2018-06-30T13:54:22.787Z,2.90
2018-06-30T13:56:50.702Z,2.93
2018-06-30T13:59:18.259Z,2.80
2018-06-30T14:01:45.814Z,2.67
2018-06-30T14:04:13.368Z,3.93
2018-06-30T14:06:40.963Z,3.12
2018-06-30T14:09:09.285Z,2.63
2018-06-30T14:11:36.837Z,2.53
2018-06-30T14:14:04.818Z,3.00
2018-06-30T14:16:32.370Z,2.90
2018-06-30T14:18:59.918Z,2.97
2018-06-30T14:21:27.558Z,2.87
2018-06-30T14:23:55.085Z,2.90
2018-06-30T14:26:22.629Z,2.60
2018-06-30T14:28:50.219Z,2.87
2018-06-30T14:31:17.782Z,2.67
2018-06-30T14:33:45.331Z,2.73
2018-06-30T14:36:12.924Z,2.70
2018-06-30T14:38:40.475Z,2.70
2018-06-30T14:41:08.796Z,2.77
2018-06-30T14:43:36.389Z,2.53
2018-06-30T14:46:04.235Z,3.03
2018-06-30T14:48:32.090Z,2.80
2018-06-30T14:51:00.046Z,3.07
2018-06-30T14:53:27.595Z,3.23
2018-06-30T14:55:55.912Z,3.20
2018-06-30T14:58:23.884Z,2.47
2018-06-30T15:00:51.434Z,3.10
2018-06-30T15:03:18.997Z,2.90
2018-06-30T15:05:46.582Z,3.00
2018-06-30T15:08:14.136Z,3.00
2018-06-30T15:10:41.974Z,2.97
2018-06-30T15:13:09.563Z,2.97
2018-06-30T15:15:37.127Z,3.10
2018-06-30T15:18:06.756Z,3.10
2018-06-30T15:20:32.366Z,2.62
2018-06-30T15:22:59.923Z,3.17
2018-06-30T15:25:27.478Z,2.87
2018-06-30T15:27:55.081Z,3.03
2018-06-30T15:30:23.421Z,3.13
2018-06-30T15:32:50.954Z,2.80
2018-06-30T15:35:18.982Z,3.17
2018-06-30T15:37:46.550Z,3.03
2018-06-30T15:40:14.102Z,2.93
2018-06-30T15:42:42.517Z,3.10
2018-06-30T15:45:10.016Z,2.97
2018-06-30T15:47:37.570Z,3.00
2018-06-30T15:50:05.166Z,2.70
2018-06-30T15:52:33.484Z,2.77
2018-06-30T15:55:01.041Z,2.93
2018-06-30T15:57:28.628Z,2.90
2018-06-30T15:59:56.181Z,3.07
2018-06-30T16:02:23.735Z,3.03
2018-06-30T16:04:51.339Z,2.93
2018-06-30T16:07:18.905Z,3.30
2018-06-30T16:09:46.507Z,3.60
2018-06-30T16:12:14.059Z,3.77
2018-06-30T16:14:41.619Z,2.90
2018-06-30T16:17:09.172Z,2.90
2018-06-30T16:19:36.783Z,2.77
2018-06-30T16:22:04.375Z,3.00
2018-06-30T16:24:31.894Z,3.25
2018-06-30T16:26:59.494Z,2.90
2018-06-30T16:29:27.056Z,2.97
2018-06-30T16:31:54.618Z,2.90
2018-06-30T16:34:22.289Z,2.87
2018-06-30T16:36:49.813Z,3.10
2018-06-30T16:39:17.370Z,2.87
2018-06-30T16:41:44.961Z,3.23
2018-06-30T16:44:12.513Z,3.30
2018-06-30T16:46:40.076Z,3.13
2018-06-30T16:49:08.154Z,3.53
2018-06-30T16:51:35.683Z,3.40
2018-06-30T16:54:03.241Z,4.07
2018-06-30T16:56:30.832Z,3.40
2018-06-30T16:58:58.384Z,3.03
2018-06-30T17:01:26.336Z,3.27
2018-06-30T17:03:53.919Z,3.50
2018-06-30T17:06:21.497Z,3.20
2018-06-30T17:08:49.035Z,2.83
2018-06-30T17:11:16.985Z,3.05
2018-06-30T17:13:44.533Z,3.40
2018-06-30T17:16:12.092Z,2.67
2018-06-30T17:18:39.685Z,2.90
2018-06-30T17:21:07.243Z,3.03
2018-06-30T17:23:34.793Z,3.13
2018-06-30T17:26:02.447Z,3.30
2018-06-30T17:28:29.935Z,3.20
2018-06-30T17:30:57.497Z,3.00
2018-06-30T17:33:25.106Z,3.30
2018-06-30T17:35:52.662Z,3.03
2018-06-30T17:38:20.219Z,3.20
2018-06-30T17:40:47.813Z,3.23
2018-06-30T17:43:17.337Z,3.40
2018-06-30T17:45:44.896Z,3.30
2018-06-30T17:48:12.480Z,3.30
2018-06-30T17:50:40.035Z,3.37
2018-06-30T17:53:07.601Z,3.50
2018-06-30T17:55:35.208Z,3.53
2018-06-30T17:58:02.774Z,3.57
2018-06-30T18:00:30.335Z,3.77
2018-06-30T18:02:57.937Z,3.57
2018-06-30T18:05:25.496Z,3.90
2018-06-30T18:07:53.051Z,3.53
2018-06-30T18:10:20.730Z,4.30
2018-06-30T18:12:48.962Z,4.12
2018-06-30T18:15:16.514Z,3.90
2018-06-30T18:17:44.118Z,4.57
2018-06-30T18:20:11.680Z,4.63
2018-06-30T18:22:39.240Z,4.67
2018-06-30T18:25:06.823Z,4.30
2018-06-30T18:27:35.160Z,3.97
2018-06-30T18:30:11.290Z,4.53
2018-06-30T18:32:38.882Z,4.13
2018-06-30T18:35:06.447Z,3.93
2018-06-30T18:37:33.998Z,4.53
2018-06-30T18:40:02.095Z,4.20
2018-06-30T18:42:29.646Z,3.50
2018-06-30T18:44:57.206Z,4.03
2018-06-30T18:47:24.795Z,3.90
2018-06-30T18:49:52.354Z,3.93
2018-06-30T18:52:19.908Z,3.80
2018-06-30T18:54:47.530Z,3.50
2018-06-30T18:57:15.098Z,3.85
2018-06-30T18:59:42.644Z,3.70
2018-06-30T19:02:10.233Z,3.80
2018-06-30T19:04:37.790Z,3.63
2018-06-30T19:07:05.363Z,4.20
2018-06-30T19:09:33.083Z,3.70
2018-06-30T19:12:00.561Z,3.40
2018-06-30T19:14:28.119Z,4.07
2018-06-30T19:16:55.732Z,3.70
2018-06-30T19:19:23.297Z,3.90
2018-06-30T19:21:50.848Z,3.47
2018-06-30T19:24:18.472Z,3.97
2018-06-30T19:26:46.791Z,3.47
2018-06-30T19:29:14.317Z,3.43
2018-06-30T19:31:41.904Z,3.63
2018-06-30T19:34:09.466Z,3.30
2018-06-30T19:36:37.031Z,4.10
2018-06-30T19:39:04.624Z,4.07
2018-06-30T19:41:32.966Z,3.90
2018-06-30T19:44:00.622Z,4.00
2018-06-30T19:46:28.399Z,4.20
2018-06-30T19:48:55.942Z,3.80
2018-06-30T19:51:23.489Z,3.80
2018-06-30T19:53:51.090Z,3.80
2018-06-30T19:56:18.641Z,3.90
2018-06-30T19:58:46.192Z,4.33
2018-06-30T20:01:13.788Z,4.50
2018-06-30T20:03:42.113Z,4.47
2018-06-30T20:06:09.664Z,4.20
2018-06-30T20:08:37.255Z,4.10
2018-06-30T20:11:04.806Z,4.20
2018-06-30T20:13:32.362Z,4.40
2018-06-30T20:15:59.945Z,4.47
2018-06-30T20:18:27.507Z,3.93
2018-06-30T20:20:55.119Z,4.10
2018-06-30T20:23:23.572Z,4.20
2018-06-30T20:25:51.124Z,4.23
2018-06-30T20:28:18.676Z,4.23
2018-06-30T20:30:46.280Z,4.40
2018-06-30T20:33:13.837Z,4.80
2018-06-30T20:35:41.387Z,4.03
2018-06-30T20:38:09.751Z,4.23
2018-06-30T20:40:37.308Z,4.30
2018-06-30T20:43:04.868Z,4.70
2018-06-30T20:45:32.490Z,5.03
2018-06-30T20:48:00.048Z,4.47
2018-06-30T20:50:27.604Z,4.73
2018-06-30T20:52:55.185Z,4.43
2018-06-30T20:55:22.736Z,4.80
2018-06-30T20:57:50.283Z,4.50
2018-06-30T21:00:17.874Z,4.30
2018-06-30T21:02:45.431Z,4.73
2018-06-30T21:05:12.981Z,4.33
2018-06-30T21:07:40.598Z,4.43
2018-06-30T21:10:08.151Z,5.10
2018-06-30T21:12:35.705Z,5.37
2018-06-30T21:15:03.291Z,4.67
2018-06-30T21:17:31.639Z,4.50
2018-06-30T21:19:59.177Z,3.70
2018-06-30T21:22:26.812Z,3.90
2018-06-30T21:24:54.372Z,4.07
2018-06-30T21:27:21.929Z,3.47
2018-06-30T21:29:49.926Z,3.57
2018-06-30T21:32:17.483Z,3.20
2018-06-30T21:34:45.045Z,3.23
2018-06-30T21:37:12.633Z,3.83
2018-06-30T21:39:40.188Z,3.20
2018-06-30T21:42:07.740Z,2.77
2018-06-30T21:44:35.338Z,3.10
2018-06-30T21:47:03.652Z,3.03
2018-06-30T21:49:31.208Z,2.70
2018-06-30T21:51:59.302Z,2.60
2018-06-30T21:54:26.867Z,2.77
2018-06-30T21:56:54.431Z,2.70
2018-06-30T21:59:22.005Z,2.33
2018-06-30T22:01:49.556Z,2.80
2018-06-30T22:04:17.118Z,2.17
2018-06-30T22:06:44.708Z,2.40
2018-06-30T22:09:12.258Z,2.60
2018-06-30T22:11:39.818Z,2.17
2018-06-30T22:14:07.416Z,2.03
2018-06-30T22:16:35.733Z,1.70
2018-06-30T22:19:03.289Z,2.10
2018-06-30T22:21:30.881Z,2.00
2018-06-30T22:23:58.434Z,2.03
2018-06-30T22:26:26.045Z,1.80
2018-06-30T22:28:53.576Z,1.60
2018-06-30T22:31:21.132Z,1.70
2018-06-30T22:33:48.684Z,1.67
2018-06-30T22:36:16.283Z,1.70
2018-06-30T22:38:43.834Z,1.52
2018-06-30T22:41:12.156Z,1.50
2018-06-30T22:43:39.781Z,1.83
2018-06-30T22:46:07.291Z,1.60
2018-06-30T22:48:34.847Z,1.30
2018-06-30T22:51:02.441Z,1.60
2018-06-30T22:53:29.991Z,1.20
2018-06-30T22:55:57.552Z,1.50
2018-06-30T22:58:25.139Z,1.37
2018-06-30T23:00:53.473Z,1.90
2018-06-30T23:03:21.034Z,1.60
2018-06-30T23:05:48.620Z,1.30
2018-06-30T23:08:16.177Z,0.93
2018-06-30T23:10:43.729Z,1.30
2018-06-30T23:13:11.311Z,1.10
2018-06-30T23:15:38.863Z,1.10
2018-06-30T23:18:06.422Z,1.07
2018-06-30T23:20:34.052Z,1.10
2018-06-30T23:23:01.602Z,1.30
2018-06-30T23:25:29.158Z,0.90
2018-06-30T23:27:56.743Z,1.20
2018-06-30T23:30:24.300Z,1.30
2018-06-30T23:32:51.853Z,1.03
2018-06-30T23:35:19.444Z,0.90
2018-06-30T23:37:46.991Z,1.33
2018-06-30T23:40:14.553Z,0.90
2018-06-30T23:42:42.153Z,0.87
2018-06-30T23:45:10.469Z,0.80
2018-06-30T23:47:38.022Z,0.70
2018-06-30T23:50:05.612Z,0.80
2018-06-30T23:52:33.164Z,1.53
2018-06-30T23:55:00.720Z,0.60
2018-06-30T23:57:28.305Z,0.80
2018-06-30T23:59:55.862Z,0.87
